sensor_id;sensor_type;location;lat;lon;timestamp;temperature;humidity
66144;SHT31;52947;50.842;6.084;2023-05-07T00:00:57;13.38;91.31
66144;SHT31;52947;50.842;6.084;2023-05-07T00:03:26;13.30;91.64
66144;SHT31;52947;50.842;6.084;2023-05-07T00:05:55;13.25;92.82
66144;SHT31;52947;50.842;6.084;2023-05-07T00:08:23;13.19;93.25
66144;SHT31;52947;50.842;6.084;2023-05-07T00:10:51;13.13;93.33
66144;SHT31;52947;50.842;6.084;2023-05-07T00:13:19;13.18;92.91
66144;SHT31;52947;50.842;6.084;2023-05-07T00:15:47;13.35;92.66
66144;SHT31;52947;50.842;6.084;2023-05-07T00:18:15;13.39;92.58
66144;SHT31;52947;50.842;6.084;2023-05-07T00:20:43;13.40;92.58
66144;SHT31;52947;50.842;6.084;2023-05-07T00:23:12;13.39;92.17
66144;SHT31;52947;50.842;6.084;2023-05-07T00:25:40;13.35;93.11
66144;SHT31;52947;50.842;6.084;2023-05-07T00:28:08;13.23;93.42
66144;SHT31;52947;50.842;6.084;2023-05-07T00:30:36;13.18;93.66
66144;SHT31;52947;50.842;6.084;2023-05-07T00:33:03;13.13;93.20
66144;SHT31;52947;50.842;6.084;2023-05-07T00:35:31;13.19;93.04
66144;SHT31;52947;50.842;6.084;2023-05-07T00:37:59;13.16;92.71
66144;SHT31;52947;50.842;6.084;2023-05-07T00:40:28;13.19;92.82
66144;SHT31;52947;50.842;6.084;2023-05-07T00:42:56;13.16;92.64
66144;SHT31;52947;50.842;6.084;2023-05-07T00:45:26;13.18;92.82
66144;SHT31;52947;50.842;6.084;2023-05-07T00:47:55;13.13;92.72
66144;SHT31;52947;50.842;6.084;2023-05-07T00:50:25;13.15;92.91
66144;SHT31;52947;50.842;6.084;2023-05-07T00:52:53;13.16;92.90
66144;SHT31;52947;50.842;6.084;2023-05-07T00:55:22;13.20;92.95
66144;SHT31;52947;50.842;6.084;2023-05-07T00:57:51;13.40;94.67
66144;SHT31;52947;50.842;6.084;2023-05-07T01:00:19;13.88;94.26
66144;SHT31;52947;50.842;6.084;2023-05-07T01:02:47;14.26;92.88
66144;SHT31;52947;50.842;6.084;2023-05-07T01:05:17;14.59;91.78
66144;SHT31;52947;50.842;6.084;2023-05-07T01:07:47;14.83;90.36
66144;SHT31;52947;50.842;6.084;2023-05-07T01:10:15;15.02;89.20
66144;SHT31;52947;50.842;6.084;2023-05-07T01:12:45;15.31;88.00
66144;SHT31;52947;50.842;6.084;2023-05-07T01:15:15;15.44;87.63
66144;SHT31;52947;50.842;6.084;2023-05-07T01:17:43;15.54;86.97
66144;SHT31;52947;50.842;6.084;2023-05-07T01:20:17;15.74;86.65
66144;SHT31;52947;50.842;6.084;2023-05-07T01:22:49;15.98;85.48
66144;SHT31;52947;50.842;6.084;2023-05-07T01:25:17;16.08;84.81
66144;SHT31;52947;50.842;6.084;2023-05-07T01:27:50;15.71;84.73
66144;SHT31;52947;50.842;6.084;2023-05-07T01:30:21;15.19;87.19
66144;SHT31;52947;50.842;6.084;2023-05-07T01:32:53;15.20;87.97
66144;SHT31;52947;50.842;6.084;2023-05-07T01:35:30;15.14;86.74
66144;SHT31;52947;50.842;6.084;2023-05-07T01:38:02;14.76;87.78
66144;SHT31;52947;50.842;6.084;2023-05-07T01:40:31;14.69;88.04
66144;SHT31;52947;50.842;6.084;2023-05-07T01:42:59;14.64;88.76
66144;SHT31;52947;50.842;6.084;2023-05-07T01:45:28;14.49;88.64
66144;SHT31;52947;50.842;6.084;2023-05-07T01:47:58;14.72;89.23
66144;SHT31;52947;50.842;6.084;2023-05-07T01:50:27;14.65;88.61
66144;SHT31;52947;50.842;6.084;2023-05-07T01:52:55;14.48;88.14
66144;SHT31;52947;50.842;6.084;2023-05-07T01:55:24;14.34;88.50
66144;SHT31;52947;50.842;6.084;2023-05-07T01:57:52;14.28;90.12
66144;SHT31;52947;50.842;6.084;2023-05-07T02:00:21;14.56;89.44
66144;SHT31;52947;50.842;6.084;2023-05-07T02:02:49;14.48;87.75
66144;SHT31;52947;50.842;6.084;2023-05-07T02:05:29;14.03;89.00
66144;SHT31;52947;50.842;6.084;2023-05-07T02:08:02;13.84;90.44
66144;SHT31;52947;50.842;6.084;2023-05-07T02:10:32;14.01;90.56
66144;SHT31;52947;50.842;6.084;2023-05-07T02:13:00;14.26;90.11
66144;SHT31;52947;50.842;6.084;2023-05-07T02:15:28;14.45;88.88
66144;SHT31;52947;50.842;6.084;2023-05-07T02:18:01;14.34;88.84
66144;SHT31;52947;50.842;6.084;2023-05-07T02:20:29;14.48;89.19
66144;SHT31;52947;50.842;6.084;2023-05-07T02:22:57;14.65;88.19
66144;SHT31;52947;50.842;6.084;2023-05-07T02:25:27;14.73;87.85
66144;SHT31;52947;50.842;6.084;2023-05-07T02:27:57;14.68;87.66
66144;SHT31;52947;50.842;6.084;2023-05-07T02:30:37;14.21;88.72
66144;SHT31;52947;50.842;6.084;2023-05-07T02:33:05;14.01;89.12
66144;SHT31;52947;50.842;6.084;2023-05-07T02:35:34;13.77;90.36
66144;SHT31;52947;50.842;6.084;2023-05-07T02:38:02;13.87;90.44
66144;SHT31;52947;50.842;6.084;2023-05-07T02:40:31;13.94;89.48
66144;SHT31;52947;50.842;6.084;2023-05-07T02:43:03;14.22;88.96
66144;SHT31;52947;50.842;6.084;2023-05-07T02:45:30;14.15;90.03
66144;SHT31;52947;50.842;6.084;2023-05-07T02:47:59;14.34;89.21
66144;SHT31;52947;50.842;6.084;2023-05-07T02:50:28;14.51;88.59
66144;SHT31;52947;50.842;6.084;2023-05-07T02:52:56;14.72;87.49
66144;SHT31;52947;50.842;6.084;2023-05-07T02:55:24;14.90;87.19
66144;SHT31;52947;50.842;6.084;2023-05-07T02:57:51;14.76;87.08
66144;SHT31;52947;50.842;6.084;2023-05-07T03:00:22;14.69;87.57
66144;SHT31;52947;50.842;6.084;2023-05-07T03:03:10;14.44;87.52
66144;SHT31;52947;50.842;6.084;2023-05-07T03:05:38;14.39;88.77
66144;SHT31;52947;50.842;6.084;2023-05-07T03:08:06;14.20;87.91
66144;SHT31;52947;50.842;6.084;2023-05-07T03:10:35;14.21;89.33
66144;SHT31;52947;50.842;6.084;2023-05-07T03:13:03;14.22;88.69
66144;SHT31;52947;50.842;6.084;2023-05-07T03:15:32;14.28;88.80
66144;SHT31;52947;50.842;6.084;2023-05-07T03:18:00;14.26;88.91
66144;SHT31;52947;50.842;6.084;2023-05-07T03:20:28;14.21;88.60
66144;SHT31;52947;50.842;6.084;2023-05-07T03:22:57;14.18;88.45
66144;SHT31;52947;50.842;6.084;2023-05-07T03:25:24;14.21;88.95
66144;SHT31;52947;50.842;6.084;2023-05-07T03:27:52;14.44;88.27
66144;SHT31;52947;50.842;6.084;2023-05-07T03:30:24;14.59;87.63
66144;SHT31;52947;50.842;6.084;2023-05-07T03:32:53;14.69;87.17
66144;SHT31;52947;50.842;6.084;2023-05-07T03:35:21;14.80;86.91
66144;SHT31;52947;50.842;6.084;2023-05-07T03:37:49;14.92;86.39
66144;SHT31;52947;50.842;6.084;2023-05-07T03:40:17;14.92;86.25
66144;SHT31;52947;50.842;6.084;2023-05-07T03:42:49;14.32;86.73
66144;SHT31;52947;50.842;6.084;2023-05-07T03:45:19;14.07;88.56
66144;SHT31;52947;50.842;6.084;2023-05-07T03:47:57;14.15;89.08
66144;SHT31;52947;50.842;6.084;2023-05-07T03:50:26;14.31;88.52
66144;SHT31;52947;50.842;6.084;2023-05-07T03:52:53;14.41;87.86
66144;SHT31;52947;50.842;6.084;2023-05-07T03:55:22;14.51;87.86
66144;SHT31;52947;50.842;6.084;2023-05-07T03:57:56;14.66;87.50
66144;SHT31;52947;50.842;6.084;2023-05-07T04:00:26;14.86;86.41
66144;SHT31;52947;50.842;6.084;2023-05-07T04:02:59;14.80;86.36
66144;SHT31;52947;50.842;6.084;2023-05-07T04:05:30;14.79;86.77
66144;SHT31;52947;50.842;6.084;2023-05-07T04:08:01;14.79;86.36
66144;SHT31;52947;50.842;6.084;2023-05-07T04:10:36;14.35;86.80
66144;SHT31;52947;50.842;6.084;2023-05-07T04:13:08;13.94;87.78
66144;SHT31;52947;50.842;6.084;2023-05-07T04:15:36;14.11;88.92
66144;SHT31;52947;50.842;6.084;2023-05-07T04:18:09;14.46;87.70
66144;SHT31;52947;50.842;6.084;2023-05-07T04:20:40;14.54;86.45
66144;SHT31;52947;50.842;6.084;2023-05-07T04:23:11;14.36;87.35
66144;SHT31;52947;50.842;6.084;2023-05-07T04:25:39;14.11;88.08
66144;SHT31;52947;50.842;6.084;2023-05-07T04:28:28;14.22;88.33
66144;SHT31;52947;50.842;6.084;2023-05-07T04:30:57;14.28;87.68
66144;SHT31;52947;50.842;6.084;2023-05-07T04:33:27;14.36;87.14
66144;SHT31;52947;50.842;6.084;2023-05-07T04:35:56;14.41;87.64
66144;SHT31;52947;50.842;6.084;2023-05-07T04:38:24;14.45;86.77
66144;SHT31;52947;50.842;6.084;2023-05-07T04:40:53;14.31;87.83
66144;SHT31;52947;50.842;6.084;2023-05-07T04:43:23;14.44;87.25
66144;SHT31;52947;50.842;6.084;2023-05-07T04:45:51;14.14;87.75
66144;SHT31;52947;50.842;6.084;2023-05-07T04:48:22;14.11;88.69
66144;SHT31;52947;50.842;6.084;2023-05-07T04:50:53;14.11;88.23
66144;SHT31;52947;50.842;6.084;2023-05-07T04:53:22;14.21;88.42
66144;SHT31;52947;50.842;6.084;2023-05-07T04:55:55;14.44;88.00
66144;SHT31;52947;50.842;6.084;2023-05-07T04:58:25;14.80;86.51
66144;SHT31;52947;50.842;6.084;2023-05-07T05:00:52;14.85;85.96
66144;SHT31;52947;50.842;6.084;2023-05-07T05:03:21;14.97;85.88
66144;SHT31;52947;50.842;6.084;2023-05-07T05:05:50;14.96;86.08
66144;SHT31;52947;50.842;6.084;2023-05-07T05:08:22;15.24;85.04
66144;SHT31;52947;50.842;6.084;2023-05-07T05:10:50;15.26;84.80
66144;SHT31;52947;50.842;6.084;2023-05-07T05:13:18;15.53;84.43
66144;SHT31;52947;50.842;6.084;2023-05-07T05:15:46;15.67;84.42
66144;SHT31;52947;50.842;6.084;2023-05-07T05:18:14;15.88;83.51
66144;SHT31;52947;50.842;6.084;2023-05-07T05:20:42;15.79;83.46
66144;SHT31;52947;50.842;6.084;2023-05-07T05:23:11;15.87;84.30
66144;SHT31;52947;50.842;6.084;2023-05-07T05:25:40;15.87;83.44
66144;SHT31;52947;50.842;6.084;2023-05-07T05:28:11;15.79;83.61
66144;SHT31;52947;50.842;6.084;2023-05-07T05:30:39;15.54;83.76
66144;SHT31;52947;50.842;6.084;2023-05-07T05:33:07;15.62;84.26
66144;SHT31;52947;50.842;6.084;2023-05-07T05:35:35;15.64;83.89
66144;SHT31;52947;50.842;6.084;2023-05-07T05:38:06;15.67;83.97
66144;SHT31;52947;50.842;6.084;2023-05-07T05:40:34;15.47;83.75
66144;SHT31;52947;50.842;6.084;2023-05-07T05:43:03;15.33;84.05
66144;SHT31;52947;50.842;6.084;2023-05-07T05:45:31;15.04;85.01
66144;SHT31;52947;50.842;6.084;2023-05-07T05:48:00;14.89;86.49
66144;SHT31;52947;50.842;6.084;2023-05-07T05:50:28;15.08;85.37
66144;SHT31;52947;50.842;6.084;2023-05-07T05:52:56;15.23;85.20
66144;SHT31;52947;50.842;6.084;2023-05-07T05:55:27;15.38;84.95
66144;SHT31;52947;50.842;6.084;2023-05-07T05:57:55;15.54;84.32
66144;SHT31;52947;50.842;6.084;2023-05-07T06:00:25;15.65;84.65
66144;SHT31;52947;50.842;6.084;2023-05-07T06:03:01;15.84;84.39
66144;SHT31;52947;50.842;6.084;2023-05-07T06:05:29;15.99;84.10
66144;SHT31;52947;50.842;6.084;2023-05-07T06:07:57;16.25;83.37
66144;SHT31;52947;50.842;6.084;2023-05-07T06:10:29;16.45;82.87
66144;SHT31;52947;50.842;6.084;2023-05-07T06:12:57;16.67;82.43
66144;SHT31;52947;50.842;6.084;2023-05-07T06:15:27;16.70;82.18
66144;SHT31;52947;50.842;6.084;2023-05-07T06:17:56;16.55;82.48
66144;SHT31;52947;50.842;6.084;2023-05-07T06:20:24;16.53;82.19
66144;SHT31;52947;50.842;6.084;2023-05-07T06:22:52;16.38;82.65
66144;SHT31;52947;50.842;6.084;2023-05-07T06:25:20;16.45;82.56
66144;SHT31;52947;50.842;6.084;2023-05-07T06:27:48;16.56;82.16
66144;SHT31;52947;50.842;6.084;2023-05-07T06:30:16;16.77;82.36
66144;SHT31;52947;50.842;6.084;2023-05-07T06:32:45;16.92;81.44
66144;SHT31;52947;50.842;6.084;2023-05-07T06:35:14;17.04;81.59
66144;SHT31;52947;50.842;6.084;2023-05-07T06:37:42;17.31;81.08
66144;SHT31;52947;50.842;6.084;2023-05-07T06:40:15;17.43;80.89
66144;SHT31;52947;50.842;6.084;2023-05-07T06:42:45;17.55;80.45
66144;SHT31;52947;50.842;6.084;2023-05-07T06:45:42;17.46;80.78
66144;SHT31;52947;50.842;6.084;2023-05-07T06:48:11;17.56;80.93
66144;SHT31;52947;50.842;6.084;2023-05-07T06:50:56;17.58;80.59
66144;SHT31;52947;50.842;6.084;2023-05-07T06:53:25;17.70;80.50
66144;SHT31;52947;50.842;6.084;2023-05-07T06:55:55;17.70;80.17
66144;SHT31;52947;50.842;6.084;2023-05-07T06:58:24;17.79;80.19
66144;SHT31;52947;50.842;6.084;2023-05-07T07:00:52;17.70;79.82
66144;SHT31;52947;50.842;6.084;2023-05-07T07:03:22;17.78;80.42
66144;SHT31;52947;50.842;6.084;2023-05-07T07:05:51;17.82;80.25
66144;SHT31;52947;50.842;6.084;2023-05-07T07:08:19;18.06;79.85
66144;SHT31;52947;50.842;6.084;2023-05-07T07:10:48;18.31;80.04
66144;SHT31;52947;50.842;6.084;2023-05-07T07:13:16;18.62;78.99
66144;SHT31;52947;50.842;6.084;2023-05-07T07:15:44;18.65;78.53
66144;SHT31;52947;50.842;6.084;2023-05-07T07:18:12;18.91;78.30
66144;SHT31;52947;50.842;6.084;2023-05-07T07:20:43;19.15;78.48
66144;SHT31;52947;50.842;6.084;2023-05-07T07:23:12;19.33;77.67
66144;SHT31;52947;50.842;6.084;2023-05-07T07:25:40;19.45;77.95
66144;SHT31;52947;50.842;6.084;2023-05-07T07:28:09;19.52;77.35
66144;SHT31;52947;50.842;6.084;2023-05-07T07:30:38;19.57;75.36
66144;SHT31;52947;50.842;6.084;2023-05-07T07:33:06;19.59;75.62
66144;SHT31;52947;50.842;6.084;2023-05-07T07:35:36;19.56;75.72
66144;SHT31;52947;50.842;6.084;2023-05-07T07:38:07;19.67;75.85
66144;SHT31;52947;50.842;6.084;2023-05-07T07:40:35;19.85;75.95
66144;SHT31;52947;50.842;6.084;2023-05-07T07:43:05;19.97;76.22
66144;SHT31;52947;50.842;6.084;2023-05-07T07:45:33;20.17;75.95
66144;SHT31;52947;50.842;6.084;2023-05-07T07:48:02;20.12;75.86
66144;SHT31;52947;50.842;6.084;2023-05-07T07:50:34;20.45;75.76
66144;SHT31;52947;50.842;6.084;2023-05-07T07:53:14;20.82;75.08
66144;SHT31;52947;50.842;6.084;2023-05-07T07:55:43;20.93;74.59
66144;SHT31;52947;50.842;6.084;2023-05-07T07:58:15;20.89;74.34
66144;SHT31;52947;50.842;6.084;2023-05-07T08:00:43;21.20;73.28
66144;SHT31;52947;50.842;6.084;2023-05-07T08:03:12;20.82;73.38
66144;SHT31;52947;50.842;6.084;2023-05-07T08:05:44;20.99;73.25
66144;SHT31;52947;50.842;6.084;2023-05-07T08:08:12;21.14;72.87
66144;SHT31;52947;50.842;6.084;2023-05-07T08:10:43;21.45;71.42
66144;SHT31;52947;50.842;6.084;2023-05-07T08:13:19;21.73;70.74
66144;SHT31;52947;50.842;6.084;2023-05-07T08:15:47;21.58;70.49
66144;SHT31;52947;50.842;6.084;2023-05-07T08:18:15;21.82;70.27
66144;SHT31;52947;50.842;6.084;2023-05-07T08:20:44;21.95;70.32
66144;SHT31;52947;50.842;6.084;2023-05-07T08:23:17;21.86;70.76
66144;SHT31;52947;50.842;6.084;2023-05-07T08:25:47;21.86;70.06
66144;SHT31;52947;50.842;6.084;2023-05-07T08:28:16;21.73;69.72
66144;SHT31;52947;50.842;6.084;2023-05-07T08:30:44;22.68;68.89
66144;SHT31;52947;50.842;6.084;2023-05-07T08:33:12;23.55;68.18
66144;SHT31;52947;50.842;6.084;2023-05-07T08:35:39;24.60;64.39
66144;SHT31;52947;50.842;6.084;2023-05-07T08:38:10;25.40;62.89
66144;SHT31;52947;50.842;6.084;2023-05-07T08:40:39;25.54;62.04
66144;SHT31;52947;50.842;6.084;2023-05-07T08:43:14;25.65;58.96
66144;SHT31;52947;50.842;6.084;2023-05-07T08:45:45;25.56;58.39
66144;SHT31;52947;50.842;6.084;2023-05-07T08:48:16;25.23;60.30
66144;SHT31;52947;50.842;6.084;2023-05-07T08:50:51;25.81;58.27
66144;SHT31;52947;50.842;6.084;2023-05-07T08:53:20;26.31;56.46
66144;SHT31;52947;50.842;6.084;2023-05-07T08:55:49;27.23;53.08
66144;SHT31;52947;50.842;6.084;2023-05-07T08:58:19;27.67;53.46
66144;SHT31;52947;50.842;6.084;2023-05-07T09:00:47;27.58;52.67
66144;SHT31;52947;50.842;6.084;2023-05-07T09:03:15;27.71;53.10
66144;SHT31;52947;50.842;6.084;2023-05-07T09:05:47;27.68;51.13
66144;SHT31;52947;50.842;6.084;2023-05-07T09:08:17;28.23;51.45
66144;SHT31;52947;50.842;6.084;2023-05-07T09:10:48;28.93;47.11
66144;SHT31;52947;50.842;6.084;2023-05-07T09:13:16;29.39;47.60
66144;SHT31;52947;50.842;6.084;2023-05-07T09:15:47;29.95;45.30
66144;SHT31;52947;50.842;6.084;2023-05-07T09:18:15;30.61;44.38
66144;SHT31;52947;50.842;6.084;2023-05-07T09:20:46;31.58;44.77
66144;SHT31;52947;50.842;6.084;2023-05-07T09:23:16;31.76;43.09
66144;SHT31;52947;50.842;6.084;2023-05-07T09:25:44;31.83;42.42
66144;SHT31;52947;50.842;6.084;2023-05-07T09:28:19;32.07;42.99
66144;SHT31;52947;50.842;6.084;2023-05-07T09:30:49;32.84;41.37
66144;SHT31;52947;50.842;6.084;2023-05-07T09:33:18;32.57;39.54
66144;SHT31;52947;50.842;6.084;2023-05-07T09:35:51;32.92;40.61
66144;SHT31;52947;50.842;6.084;2023-05-07T09:38:21;33.37;39.95
66144;SHT31;52947;50.842;6.084;2023-05-07T09:41:02;31.53;43.45
66144;SHT31;52947;50.842;6.084;2023-05-07T09:43:33;31.62;42.01
66144;SHT31;52947;50.842;6.084;2023-05-07T09:46:07;29.86;45.77
66144;SHT31;52947;50.842;6.084;2023-05-07T09:48:37;29.99;45.51
66144;SHT31;52947;50.842;6.084;2023-05-07T09:51:15;29.62;46.06
66144;SHT31;52947;50.842;6.084;2023-05-07T09:53:43;29.20;48.14
66144;SHT31;52947;50.842;6.084;2023-05-07T09:56:14;29.24;47.07
66144;SHT31;52947;50.842;6.084;2023-05-07T09:58:43;28.63;46.57
66144;SHT31;52947;50.842;6.084;2023-05-07T10:01:13;28.90;47.86
66144;SHT31;52947;50.842;6.084;2023-05-07T10:03:43;27.90;46.99
66144;SHT31;52947;50.842;6.084;2023-05-07T10:06:13;27.67;49.16
66144;SHT31;52947;50.842;6.084;2023-05-07T10:08:42;25.86;51.32
66144;SHT31;52947;50.842;6.084;2023-05-07T10:11:10;26.05;51.40
66144;SHT31;52947;50.842;6.084;2023-05-07T10:13:40;24.68;53.42
66144;SHT31;52947;50.842;6.084;2023-05-07T10:16:09;24.84;54.37
66144;SHT31;52947;50.842;6.084;2023-05-07T10:18:46;24.95;54.66
66144;SHT31;52947;50.842;6.084;2023-05-07T10:21:21;24.56;55.30
66144;SHT31;52947;50.842;6.084;2023-05-07T10:23:57;24.34;55.79
66144;SHT31;52947;50.842;6.084;2023-05-07T10:26:29;23.56;56.74
66144;SHT31;52947;50.842;6.084;2023-05-07T10:29:01;23.79;56.88
66144;SHT31;52947;50.842;6.084;2023-05-07T10:31:42;24.30;56.24
66144;SHT31;52947;50.842;6.084;2023-05-07T10:34:16;23.86;57.70
66144;SHT31;52947;50.842;6.084;2023-05-07T10:36:46;23.66;58.68
66144;SHT31;52947;50.842;6.084;2023-05-07T10:39:14;23.10;58.24
66144;SHT31;52947;50.842;6.084;2023-05-07T10:41:42;23.14;59.04
66144;SHT31;52947;50.842;6.084;2023-05-07T10:44:10;22.88;59.45
66144;SHT31;52947;50.842;6.084;2023-05-07T10:46:38;22.71;59.93
66144;SHT31;52947;50.842;6.084;2023-05-07T10:49:18;23.01;59.71
66144;SHT31;52947;50.842;6.084;2023-05-07T10:52:12;22.33;60.35
66144;SHT31;52947;50.842;6.084;2023-05-07T10:54:46;22.74;60.79
66144;SHT31;52947;50.842;6.084;2023-05-07T10:57:34;22.30;61.68
66144;SHT31;52947;50.842;6.084;2023-05-07T11:00:42;22.20;61.49
66144;SHT31;52947;50.842;6.084;2023-05-07T11:03:21;22.42;61.27
66144;SHT31;52947;50.842;6.084;2023-05-07T11:06:15;23.03;60.97
66144;SHT31;52947;50.842;6.084;2023-05-07T11:09:06;23.38;60.76
66144;SHT31;52947;50.842;6.084;2023-05-07T11:11:45;23.52;60.27
66144;SHT31;52947;50.842;6.084;2023-05-07T11:14:42;23.49;60.55
66144;SHT31;52947;50.842;6.084;2023-05-07T11:17:14;22.96;61.63
66144;SHT31;52947;50.842;6.084;2023-05-07T11:19:48;23.24;60.86
66144;SHT31;52947;50.842;6.084;2023-05-07T11:22:41;23.49;60.65
66144;SHT31;52947;50.842;6.084;2023-05-07T11:25:21;23.49;60.15
66144;SHT31;52947;50.842;6.084;2023-05-07T11:27:56;23.42;60.20
66144;SHT31;52947;50.842;6.084;2023-05-07T11:30:24;23.54;64.35
66144;SHT31;52947;50.842;6.084;2023-05-07T11:32:53;23.48;67.53
66144;SHT31;52947;50.842;6.084;2023-05-07T11:35:22;23.21;68.30
66144;SHT31;52947;50.842;6.084;2023-05-07T11:37:58;23.00;69.45
66144;SHT31;52947;50.842;6.084;2023-05-07T11:40:28;22.81;70.00
66144;SHT31;52947;50.842;6.084;2023-05-07T11:42:56;22.10;71.29
66144;SHT31;52947;50.842;6.084;2023-05-07T11:45:24;22.01;72.71
66144;SHT31;52947;50.842;6.084;2023-05-07T11:47:52;21.96;73.18
66144;SHT31;52947;50.842;6.084;2023-05-07T11:50:20;21.88;74.76
66144;SHT31;52947;50.842;6.084;2023-05-07T11:52:50;21.84;74.30
66144;SHT31;52947;50.842;6.084;2023-05-07T11:55:20;21.84;72.71
66144;SHT31;52947;50.842;6.084;2023-05-07T11:57:49;21.86;72.53
66144;SHT31;52947;50.842;6.084;2023-05-07T12:00:17;21.92;72.91
66144;SHT31;52947;50.842;6.084;2023-05-07T12:02:45;21.98;72.21
66144;SHT31;52947;50.842;6.084;2023-05-07T12:05:13;21.99;72.60
66144;SHT31;52947;50.842;6.084;2023-05-07T12:07:41;22.08;71.94
66144;SHT31;52947;50.842;6.084;2023-05-07T12:10:11;22.20;72.18
66144;SHT31;52947;50.842;6.084;2023-05-07T12:12:41;22.30;72.16
66144;SHT31;52947;50.842;6.084;2023-05-07T12:15:09;22.16;72.94
66144;SHT31;52947;50.842;6.084;2023-05-07T12:17:38;21.81;72.85
66144;SHT31;52947;50.842;6.084;2023-05-07T12:20:08;21.64;74.04
66144;SHT31;52947;50.842;6.084;2023-05-07T12:22:35;21.31;75.00
66144;SHT31;52947;50.842;6.084;2023-05-07T12:25:04;21.11;75.76
66144;SHT31;52947;50.842;6.084;2023-05-07T12:27:36;20.87;76.04
66144;SHT31;52947;50.842;6.084;2023-05-07T12:30:09;20.63;77.19
66144;SHT31;52947;50.842;6.084;2023-05-07T12:32:38;20.49;77.40
66144;SHT31;52947;50.842;6.084;2023-05-07T12:35:06;20.31;77.80
66144;SHT31;52947;50.842;6.084;2023-05-07T12:37:35;20.22;78.45
66144;SHT31;52947;50.842;6.084;2023-05-07T12:40:04;20.20;78.30
66144;SHT31;52947;50.842;6.084;2023-05-07T12:42:35;20.21;78.48
66144;SHT31;52947;50.842;6.084;2023-05-07T12:45:12;20.32;78.43
66144;SHT31;52947;50.842;6.084;2023-05-07T12:47:43;20.68;78.66
66144;SHT31;52947;50.842;6.084;2023-05-07T12:50:12;20.90;78.01
66144;SHT31;52947;50.842;6.084;2023-05-07T12:52:40;21.11;78.08
66144;SHT31;52947;50.842;6.084;2023-05-07T12:55:09;21.13;76.83
66144;SHT31;52947;50.842;6.084;2023-05-07T12:57:41;21.35;75.95
66144;SHT31;52947;50.842;6.084;2023-05-07T13:00:11;21.47;75.25
66144;SHT31;52947;50.842;6.084;2023-05-07T13:02:41;21.47;75.73
66144;SHT31;52947;50.842;6.084;2023-05-07T13:05:11;21.61;75.37
66144;SHT31;52947;50.842;6.084;2023-05-07T13:07:39;21.54;74.19
66144;SHT31;52947;50.842;6.084;2023-05-07T13:10:09;21.78;74.87
66144;SHT31;52947;50.842;6.084;2023-05-07T13:12:37;22.01;74.25
66144;SHT31;52947;50.842;6.084;2023-05-07T13:15:05;22.04;73.96
66144;SHT31;52947;50.842;6.084;2023-05-07T13:17:35;22.19;72.40
66144;SHT31;52947;50.842;6.084;2023-05-07T13:20:04;22.23;72.90
66144;SHT31;52947;50.842;6.084;2023-05-07T13:22:32;22.29;72.79
66144;SHT31;52947;50.842;6.084;2023-05-07T13:25:00;22.32;69.74
66144;SHT31;52947;50.842;6.084;2023-05-07T13:27:28;22.16;68.98
66144;SHT31;52947;50.842;6.084;2023-05-07T13:29:57;22.16;71.66
66144;SHT31;52947;50.842;6.084;2023-05-07T13:32:25;22.01;72.29
66144;SHT31;52947;50.842;6.084;2023-05-07T13:34:54;21.99;72.45
66144;SHT31;52947;50.842;6.084;2023-05-07T13:37:22;21.68;71.75
66144;SHT31;52947;50.842;6.084;2023-05-07T13:39:50;21.59;72.70
66144;SHT31;52947;50.842;6.084;2023-05-07T13:42:18;21.35;73.79
66144;SHT31;52947;50.842;6.084;2023-05-07T13:44:45;21.47;73.72
66144;SHT31;52947;50.842;6.084;2023-05-07T13:47:13;21.57;73.82
66144;SHT31;52947;50.842;6.084;2023-05-07T13:49:41;21.86;72.77
66144;SHT31;52947;50.842;6.084;2023-05-07T13:52:11;21.73;72.50
66144;SHT31;52947;50.842;6.084;2023-05-07T13:54:38;21.47;70.82
66144;SHT31;52947;50.842;6.084;2023-05-07T13:57:06;21.40;71.96
66144;SHT31;52947;50.842;6.084;2023-05-07T13:59:34;21.64;72.88
66144;SHT31;52947;50.842;6.084;2023-05-07T14:02:02;21.75;73.08
66144;SHT31;52947;50.842;6.084;2023-05-07T14:04:30;21.84;73.66
66144;SHT31;52947;50.842;6.084;2023-05-07T14:06:58;21.74;72.12
66144;SHT31;52947;50.842;6.084;2023-05-07T14:09:27;21.79;71.57
66144;SHT31;52947;50.842;6.084;2023-05-07T14:11:56;21.68;72.50
66144;SHT31;52947;50.842;6.084;2023-05-07T14:14:24;21.37;73.58
66144;SHT31;52947;50.842;6.084;2023-05-07T14:16:51;21.27;74.68
66144;SHT31;52947;50.842;6.084;2023-05-07T14:19:19;21.50;74.33
66144;SHT31;52947;50.842;6.084;2023-05-07T14:21:49;21.55;73.83
66144;SHT31;52947;50.842;6.084;2023-05-07T14:24:17;21.41;73.09
66144;SHT31;52947;50.842;6.084;2023-05-07T14:27:04;21.54;72.57
66144;SHT31;52947;50.842;6.084;2023-05-07T14:29:33;21.54;72.66
66144;SHT31;52947;50.842;6.084;2023-05-07T14:32:02;21.55;72.58
66144;SHT31;52947;50.842;6.084;2023-05-07T14:34:31;21.47;72.07
66144;SHT31;52947;50.842;6.084;2023-05-07T14:36:59;21.38;72.52
66144;SHT31;52947;50.842;6.084;2023-05-07T14:39:28;21.34;71.96
66144;SHT31;52947;50.842;6.084;2023-05-07T14:41:56;21.44;72.18
66144;SHT31;52947;50.842;6.084;2023-05-07T14:44:26;21.57;72.83
66144;SHT31;52947;50.842;6.084;2023-05-07T14:46:54;21.59;72.87
66144;SHT31;52947;50.842;6.084;2023-05-07T14:49:22;21.51;72.55
66144;SHT31;52947;50.842;6.084;2023-05-07T14:51:50;21.28;72.53
66144;SHT31;52947;50.842;6.084;2023-05-07T14:54:18;21.47;72.24
66144;SHT31;52947;50.842;6.084;2023-05-07T14:56:46;21.47;72.39
66144;SHT31;52947;50.842;6.084;2023-05-07T14:59:14;21.40;72.18
66144;SHT31;52947;50.842;6.084;2023-05-07T15:01:45;21.37;71.87
66144;SHT31;52947;50.842;6.084;2023-05-07T15:04:13;21.62;71.45
66144;SHT31;52947;50.842;6.084;2023-05-07T15:06:42;21.53;72.05
66144;SHT31;52947;50.842;6.084;2023-05-07T15:09:09;21.43;71.99
66144;SHT31;52947;50.842;6.084;2023-05-07T15:11:37;21.51;72.70
66144;SHT31;52947;50.842;6.084;2023-05-07T15:14:06;21.54;72.92
66144;SHT31;52947;50.842;6.084;2023-05-07T15:16:34;21.47;72.99
66144;SHT31;52947;50.842;6.084;2023-05-07T15:19:03;21.40;73.70
66144;SHT31;52947;50.842;6.084;2023-05-07T15:21:31;21.44;73.25
66144;SHT31;52947;50.842;6.084;2023-05-07T15:24:01;21.43;72.68
66144;SHT31;52947;50.842;6.084;2023-05-07T15:26:29;21.27;73.07
66144;SHT31;52947;50.842;6.084;2023-05-07T15:28:57;21.16;72.40
66144;SHT31;52947;50.842;6.084;2023-05-07T15:31:25;20.96;72.18
66144;SHT31;52947;50.842;6.084;2023-05-07T15:33:53;20.89;72.42
66144;SHT31;52947;50.842;6.084;2023-05-07T15:36:24;20.85;72.53
66144;SHT31;52947;50.842;6.084;2023-05-07T15:38:52;20.63;73.43
66144;SHT31;52947;50.842;6.084;2023-05-07T15:41:20;20.68;73.45
66144;SHT31;52947;50.842;6.084;2023-05-07T15:43:50;20.76;73.40
66144;SHT31;52947;50.842;6.084;2023-05-07T15:46:20;20.71;72.03
66144;SHT31;52947;50.842;6.084;2023-05-07T15:48:50;20.68;72.48